createdAt,value
2019-06-01T00:00:14.029Z,0.00
2019-06-01T00:01:14.017Z,0.00
2019-06-01T00:02:14.020Z,0.00
2019-06-01T00:03:14.033Z,0.00
2019-06-01T00:04:14.023Z,0.00
2019-06-01T00:05:14.022Z,0.00
2019-06-01T00:06:14.031Z,0.00
2019-06-01T00:07:14.033Z,0.00
2019-06-01T00:08:14.028Z,0.00
2019-06-01T00:09:14.017Z,0.00
2019-06-01T00:10:14.048Z,0.00
2019-06-01T00:11:14.024Z,0.00
2019-06-01T00:12:14.023Z,0.00
2019-06-01T00:13:14.021Z,0.00
2019-06-01T00:14:14.041Z,0.00
2019-06-01T00:15:14.027Z,0.00
2019-06-01T00:16:14.024Z,0.00
2019-06-01T00:17:14.023Z,0.00
2019-06-01T00:18:14.024Z,0.00
2019-06-01T00:19:14.030Z,0.00
2019-06-01T00:20:14.022Z,0.00
2019-06-01T00:21:23.806Z,0.00
2019-06-01T00:23:07.749Z,0.00
2019-06-01T00:24:07.679Z,0.00
2019-06-01T00:25:07.666Z,0.00
2019-06-01T00:26:07.647Z,0.00
2019-06-01T00:27:07.665Z,0.00
2019-06-01T00:28:07.664Z,0.00
2019-06-01T00:29:07.653Z,0.00
2019-06-01T00:30:07.699Z,0.00
2019-06-01T00:31:07.649Z,0.00
2019-06-01T00:32:07.674Z,0.00
2019-06-01T00:33:07.661Z,0.00
2019-06-01T00:34:07.688Z,0.00
2019-06-01T00:35:07.667Z,0.00
2019-06-01T00:36:07.645Z,0.00
2019-06-01T00:37:07.641Z,0.00
2019-06-01T00:38:07.642Z,0.00
2019-06-01T00:39:07.657Z,0.00
2019-06-01T00:40:07.642Z,0.00
2019-06-01T00:41:07.670Z,0.00
2019-06-01T00:42:07.661Z,0.00
2019-06-01T00:43:07.669Z,0.00
2019-06-01T00:44:07.668Z,0.00
2019-06-01T00:45:07.639Z,0.00
2019-06-01T00:46:07.701Z,0.00
2019-06-01T00:47:07.691Z,0.00
2019-06-01T00:48:07.693Z,0.00
2019-06-01T00:49:07.665Z,0.00
2019-06-01T00:50:07.645Z,0.00
2019-06-01T00:51:07.659Z,0.00
2019-06-01T00:52:07.642Z,0.00
2019-06-01T00:53:07.680Z,0.00
2019-06-01T00:54:07.706Z,0.00
2019-06-01T00:55:07.662Z,0.00
2019-06-01T00:56:07.656Z,0.00
2019-06-01T00:57:07.656Z,0.00
2019-06-01T00:58:07.669Z,0.00
2019-06-01T00:59:17.034Z,0.00
2019-06-01T01:03:02.945Z,0.00
2019-06-01T01:04:02.847Z,0.00
2019-06-01T01:05:02.808Z,0.00
2019-06-01T01:06:02.815Z,0.00
2019-06-01T01:07:02.810Z,0.00
2019-06-01T01:08:02.837Z,0.00
2019-06-01T01:09:02.794Z,0.00
2019-06-01T01:10:02.784Z,0.00
2019-06-01T01:11:02.774Z,0.00
2019-06-01T01:12:02.781Z,0.00
2019-06-01T01:13:02.781Z,0.00
2019-06-01T01:14:02.777Z,0.00
2019-06-01T01:15:02.806Z,0.00
2019-06-01T01:16:02.792Z,0.00
2019-06-01T01:17:02.789Z,0.00
2019-06-01T01:18:02.813Z,0.00
2019-06-01T01:19:02.794Z,0.00
2019-06-01T01:20:02.795Z,0.00
2019-06-01T01:21:02.801Z,0.00
2019-06-01T01:22:02.817Z,0.00
2019-06-01T01:23:02.837Z,0.00
2019-06-01T01:24:02.812Z,0.00
2019-06-01T01:25:02.828Z,0.00
2019-06-01T01:26:02.827Z,0.00
2019-06-01T01:27:02.791Z,0.00
2019-06-01T01:28:02.870Z,0.00
2019-06-01T01:29:02.866Z,0.00
2019-06-01T01:30:02.818Z,0.00
2019-06-01T01:31:14.126Z,0.00
2019-06-01T01:33:07.460Z,0.00
2019-06-01T01:34:07.622Z,0.00
2019-06-01T01:35:07.506Z,0.00
2019-06-01T01:36:17.086Z,0.00
2019-06-01T01:38:12.037Z,0.00
2019-06-01T01:39:12.036Z,0.00
2019-06-01T01:40:11.850Z,0.00
2019-06-01T01:41:11.802Z,0.00
2019-06-01T01:42:11.991Z,0.00
2019-06-01T01:43:11.787Z,0.00
2019-06-01T01:44:11.809Z,0.00
2019-06-01T01:45:11.794Z,0.00
2019-06-01T01:46:11.852Z,0.00
2019-06-01T01:47:14.332Z,0.00
2019-06-01T01:48:11.786Z,0.00
2019-06-01T01:49:11.848Z,0.00
2019-06-01T01:50:11.829Z,0.00
2019-06-01T01:51:11.804Z,0.00
2019-06-01T01:52:11.819Z,0.00
2019-06-01T01:53:11.811Z,0.00
2019-06-01T01:54:11.807Z,0.00
2019-06-01T01:55:11.790Z,0.00
2019-06-01T01:56:11.793Z,0.00
2019-06-01T01:57:11.798Z,0.00
2019-06-01T01:58:11.810Z,0.00
2019-06-01T01:59:11.792Z,0.00
2019-06-01T02:00:11.782Z,0.00
2019-06-01T02:01:22.099Z,0.00
2019-06-01T02:02:11.812Z,0.00
2019-06-01T02:03:11.778Z,0.00
2019-06-01T02:04:11.763Z,0.00
2019-06-01T02:05:11.791Z,0.00
2019-06-01T02:06:11.760Z,0.00
2019-06-01T02:07:11.794Z,0.00
2019-06-01T02:08:11.799Z,0.00
2019-06-01T02:09:11.782Z,0.00
2019-06-01T02:10:11.784Z,0.00
2019-06-01T02:11:11.750Z,0.00
2019-06-01T02:12:11.753Z,0.00
2019-06-01T02:13:11.777Z,0.00
2019-06-01T02:14:11.786Z,0.00
2019-06-01T02:15:11.790Z,0.00
2019-06-01T02:16:11.775Z,0.00
2019-06-01T02:17:11.790Z,0.00
2019-06-01T02:18:11.782Z,0.00
2019-06-01T02:19:11.769Z,0.00
2019-06-01T02:20:11.759Z,0.00
2019-06-01T02:21:11.781Z,0.00
2019-06-01T02:22:11.783Z,0.00
2019-06-01T02:23:11.784Z,0.00
2019-06-01T02:24:11.746Z,0.00
2019-06-01T02:25:11.752Z,0.00
2019-06-01T02:26:11.766Z,0.00
2019-06-01T02:27:11.813Z,0.00
2019-06-01T02:28:11.777Z,0.00
2019-06-01T02:29:11.735Z,0.00
2019-06-01T02:30:11.736Z,0.00
2019-06-01T02:31:11.783Z,0.00
2019-06-01T02:32:11.765Z,0.00
2019-06-01T02:33:11.781Z,0.00
2019-06-01T02:34:11.855Z,0.00
2019-06-01T02:35:11.739Z,0.00
2019-06-01T02:36:11.769Z,0.00
2019-06-01T02:37:11.768Z,0.00
2019-06-01T02:38:11.770Z,0.00
2019-06-01T02:39:11.803Z,0.00
2019-06-01T02:40:11.758Z,0.00
2019-06-01T02:41:11.729Z,0.00
2019-06-01T02:42:11.749Z,0.00
2019-06-01T02:43:11.728Z,0.00
2019-06-01T02:44:11.741Z,0.00
2019-06-01T02:45:11.720Z,0.00
2019-06-01T02:46:11.759Z,0.00
2019-06-01T02:47:11.731Z,0.00
2019-06-01T02:48:11.753Z,0.00
2019-06-01T02:49:11.763Z,0.00
2019-06-01T02:50:11.744Z,0.00
2019-06-01T02:51:11.729Z,0.00
2019-06-01T02:52:11.732Z,0.00
2019-06-01T02:53:11.767Z,0.00
2019-06-01T02:54:11.710Z,0.00
2019-06-01T02:55:11.746Z,0.00
2019-06-01T02:56:11.731Z,0.00
2019-06-01T02:57:11.722Z,0.00
2019-06-01T02:58:11.786Z,0.00
2019-06-01T02:59:11.747Z,0.00
2019-06-01T03:00:11.747Z,0.00
2019-06-01T03:01:11.702Z,0.00
2019-06-01T03:02:14.289Z,0.00
2019-06-01T03:03:11.747Z,0.00
2019-06-01T03:04:11.709Z,0.00
2019-06-01T03:05:11.727Z,0.00
2019-06-01T03:06:11.714Z,0.00
2019-06-01T03:07:11.687Z,0.00
2019-06-01T03:08:11.788Z,0.00
2019-06-01T03:09:11.691Z,0.00
2019-06-01T03:10:11.743Z,0.00
2019-06-01T03:11:11.713Z,0.00
2019-06-01T03:12:11.700Z,0.00
2019-06-01T03:13:11.747Z,0.00
2019-06-01T03:14:11.683Z,0.00
2019-06-01T03:15:11.727Z,0.00
2019-06-01T03:16:11.741Z,0.00
2019-06-01T03:17:12.117Z,0.00
2019-06-01T03:18:11.883Z,0.00
2019-06-01T03:19:12.109Z,0.00
2019-06-01T03:20:11.921Z,0.00
2019-06-01T03:21:11.985Z,0.00
2019-06-01T03:22:12.117Z,0.00
2019-06-01T03:23:12.096Z,0.00
2019-06-01T03:24:13.024Z,0.00
2019-06-01T03:25:12.345Z,0.00
2019-06-01T03:26:12.450Z,0.00
2019-06-01T03:27:12.459Z,0.00
2019-06-01T03:28:12.430Z,0.00
2019-06-01T03:29:12.654Z,0.00
2019-06-01T03:30:15.128Z,0.00
2019-06-01T03:31:13.180Z,0.00
2019-06-01T03:32:28.978Z,0.00
2019-06-01T03:33:13.819Z,0.00
2019-06-01T03:34:13.390Z,0.00
2019-06-01T03:35:12.991Z,0.00
2019-06-01T03:36:13.082Z,0.00
2019-06-01T03:37:11.671Z,0.00
2019-06-01T03:38:11.677Z,0.00
2019-06-01T03:39:12.868Z,0.00
2019-06-01T03:40:23.214Z,0.00
2019-06-01T03:41:12.385Z,0.00
2019-06-01T03:42:11.794Z,0.00
2019-06-01T03:43:11.664Z,0.00
2019-06-01T03:44:12.812Z,0.00
2019-06-01T03:45:12.649Z,5.63
2019-06-01T03:46:12.984Z,5.63
2019-06-01T03:47:11.950Z,5.63
2019-06-01T03:48:12.919Z,5.63
2019-06-01T03:49:11.988Z,5.63
2019-06-01T03:50:13.145Z,5.63
2019-06-01T03:51:12.003Z,5.63
2019-06-01T03:52:11.659Z,5.63
2019-06-01T03:53:12.185Z,5.63
2019-06-01T03:54:11.662Z,5.63
2019-06-01T03:55:12.036Z,5.63
2019-06-01T03:56:11.628Z,5.63
2019-06-01T03:57:11.687Z,5.63
2019-06-01T03:58:11.629Z,5.63
2019-06-01T03:59:11.664Z,5.63
2019-06-01T04:00:12.066Z,5.63
2019-06-01T04:01:11.658Z,11.25
2019-06-01T04:02:11.647Z,11.25
2019-06-01T04:03:11.614Z,11.25
2019-06-01T04:04:11.654Z,11.25
2019-06-01T04:05:11.647Z,11.25
2019-06-01T04:06:11.622Z,11.25
2019-06-01T04:23:59.019Z,22.50
2019-06-01T04:24:58.845Z,22.50
2019-06-01T04:25:58.827Z,28.13
2019-06-01T04:26:58.914Z,33.75
2019-06-01T04:27:58.814Z,39.38
2019-06-01T04:28:58.807Z,33.75
2019-06-01T04:29:58.816Z,28.13
2019-06-01T04:30:58.808Z,28.13
2019-06-01T04:31:58.834Z,33.75
2019-06-01T04:33:07.509Z,33.75
2019-06-01T04:35:03.832Z,45.00
2019-06-01T04:36:03.355Z,50.63
2019-06-01T04:37:03.607Z,50.63
2019-06-01T04:38:03.486Z,73.13
2019-06-01T04:39:03.434Z,118.13
2019-06-01T04:40:03.350Z,140.63
2019-06-01T04:41:03.576Z,146.25
2019-06-01T04:42:03.493Z,140.63
2019-06-01T04:43:03.727Z,140.63
2019-06-01T04:44:03.757Z,135.00
2019-06-01T04:45:04.367Z,123.75
2019-06-01T04:46:04.019Z,106.88
2019-06-01T04:47:04.311Z,106.88
2019-06-01T04:48:04.337Z,123.75
2019-06-01T04:49:04.306Z,146.25
2019-06-01T04:50:04.478Z,168.75
2019-06-01T04:51:04.520Z,196.88
2019-06-01T04:52:04.573Z,219.38
2019-06-01T04:53:04.574Z,241.88
2019-06-01T04:54:04.771Z,258.75
2019-06-01T04:55:05.092Z,264.38
2019-06-01T04:56:04.742Z,264.38
2019-06-01T04:57:04.651Z,270.00
2019-06-01T04:58:04.386Z,281.25
2019-06-01T04:59:04.779Z,270.00
2019-06-01T05:00:08.061Z,270.00
2019-06-01T05:01:03.400Z,264.38
2019-06-01T05:02:03.422Z,270.00
2019-06-01T05:03:06.771Z,281.25
2019-06-01T05:04:04.858Z,298.13
2019-06-01T05:05:03.458Z,303.75
2019-06-01T05:06:03.469Z,286.88
2019-06-01T05:07:03.505Z,286.88
2019-06-01T05:08:03.468Z,315.00
2019-06-01T05:09:03.500Z,309.38
2019-06-01T05:10:03.540Z,315.00
2019-06-01T05:11:06.550Z,331.88
2019-06-01T05:12:03.608Z,343.13
2019-06-01T05:13:03.586Z,354.38
2019-06-01T05:14:03.557Z,365.63
2019-06-01T05:15:03.634Z,365.63
2019-06-01T05:16:03.618Z,354.38
2019-06-01T05:17:03.616Z,354.38
2019-06-01T05:18:03.642Z,354.38
2019-06-01T05:19:03.681Z,354.38
2019-06-01T05:20:03.701Z,365.63
2019-06-01T05:21:03.751Z,388.13
2019-06-01T05:22:03.763Z,416.25
2019-06-01T05:23:03.753Z,427.50
2019-06-01T05:24:03.774Z,450.00
2019-06-01T05:25:03.792Z,466.88
2019-06-01T05:26:03.780Z,483.75
2019-06-01T05:27:03.800Z,500.63
2019-06-01T05:28:03.842Z,511.88
2019-06-01T05:29:03.820Z,545.63
2019-06-01T05:30:03.818Z,590.63
2019-06-01T05:31:03.876Z,630.00
2019-06-01T05:32:03.914Z,691.88
2019-06-01T05:33:03.864Z,731.25
2019-06-01T05:34:03.945Z,781.88
2019-06-01T05:35:03.946Z,849.38
2019-06-01T05:36:03.959Z,871.88
2019-06-01T05:37:03.971Z,888.75
2019-06-01T05:38:12.812Z,945.00
2019-06-01T05:40:10.505Z,1102.50
2019-06-01T05:41:19.893Z,1141.88
2019-06-01T05:43:17.455Z,1411.88
2019-06-01T05:44:14.918Z,1524.38
2019-06-01T05:45:23.292Z,1462.50
2019-06-01T05:47:18.883Z,1653.75
2019-06-01T05:48:25.050Z,1603.13
2019-06-01T05:49:18.787Z,1445.63
2019-06-01T05:50:18.794Z,1366.88
2019-06-01T05:51:20.145Z,1445.63
2019-06-01T05:52:18.982Z,1648.13
2019-06-01T05:53:19.881Z,1996.88
2019-06-01T05:54:19.019Z,1805.63
2019-06-01T05:55:18.845Z,1479.38
2019-06-01T05:56:19.056Z,1524.38
2019-06-01T05:57:19.434Z,1575.00
2019-06-01T05:58:19.724Z,1676.25
2019-06-01T05:59:18.995Z,1704.38
2019-06-01T06:00:19.155Z,1828.13
2019-06-01T06:01:19.577Z,2154.38
2019-06-01T06:02:19.560Z,2761.88
2019-06-01T06:03:22.312Z,3082.50
2019-06-01T06:04:19.558Z,2992.50
2019-06-01T06:05:19.031Z,2615.63
2019-06-01T06:06:19.945Z,2041.88
2019-06-01T06:07:19.146Z,1783.13
2019-06-01T06:08:20.136Z,1749.38
2019-06-01T06:09:19.217Z,1822.50
2019-06-01T06:10:20.051Z,2081.25
2019-06-01T06:11:19.165Z,2340.00
2019-06-01T06:12:19.498Z,2272.50
2019-06-01T06:13:19.418Z,2070.00
2019-06-01T06:14:20.993Z,1203.75
2019-06-01T06:15:19.745Z,202.50
2019-06-01T06:16:20.757Z,84.38
2019-06-01T06:17:20.286Z,61.88
2019-06-01T06:18:19.815Z,50.63
2019-06-01T06:19:22.132Z,50.63
2019-06-01T06:20:20.138Z,45.00
2019-06-01T06:21:20.265Z,45.00
2019-06-01T06:22:20.338Z,45.00
2019-06-01T06:23:20.553Z,45.00
2019-06-01T06:24:20.530Z,45.00
2019-06-01T06:25:19.441Z,45.00
2019-06-01T06:26:20.519Z,45.00
2019-06-01T06:27:20.622Z,45.00
2019-06-01T06:28:19.490Z,45.00
2019-06-01T06:29:19.497Z,45.00
2019-06-01T06:30:19.510Z,45.00
2019-06-01T06:31:19.579Z,45.00
2019-06-01T06:32:19.533Z,45.00
2019-06-01T06:33:19.620Z,45.00
2019-06-01T06:34:19.771Z,45.00
2019-06-01T06:35:19.611Z,39.38
2019-06-01T06:36:19.855Z,39.38
2019-06-01T06:37:19.809Z,39.38
2019-06-01T06:38:19.832Z,39.38
2019-06-01T06:39:20.064Z,39.38
2019-06-01T06:40:20.126Z,39.38
2019-06-01T06:41:20.339Z,39.38
2019-06-01T06:42:20.347Z,39.38
2019-06-01T06:43:28.296Z,39.38
2019-06-01T06:44:20.606Z,39.38
2019-06-01T06:45:20.702Z,39.38
2019-06-01T06:46:20.749Z,39.38
2019-06-01T06:47:20.837Z,39.38
2019-06-01T06:48:21.154Z,39.38
2019-06-01T06:49:19.748Z,39.38
2019-06-01T06:50:19.733Z,39.38
2019-06-01T06:51:19.738Z,39.38
2019-06-01T06:52:19.758Z,39.38
2019-06-01T06:53:28.241Z,39.38
2019-06-01T06:54:19.893Z,39.38
2019-06-01T06:55:19.885Z,39.38
2019-06-01T06:56:19.965Z,39.38
2019-06-01T06:57:20.145Z,39.38
2019-06-01T06:58:21.025Z,39.38
2019-06-01T06:59:20.381Z,39.38
2019-06-01T07:00:20.605Z,39.38
2019-06-01T07:01:20.806Z,39.38
2019-06-01T07:02:20.836Z,39.38
2019-06-01T07:03:21.012Z,39.38
2019-06-01T07:04:21.047Z,39.38
2019-06-01T07:05:19.839Z,39.38
2019-06-01T07:06:19.878Z,39.38
2019-06-01T07:07:19.903Z,39.38
2019-06-01T07:08:19.856Z,39.38
2019-06-01T07:09:20.001Z,39.38
2019-06-01T07:10:20.091Z,39.38
2019-06-01T07:11:20.862Z,39.38
2019-06-01T07:12:19.881Z,39.38
2019-06-01T07:13:19.895Z,39.38
2019-06-01T07:14:19.902Z,39.38
2019-06-01T07:15:19.932Z,39.38
2019-06-01T07:16:19.913Z,39.38
2019-06-01T07:17:19.907Z,39.38
2019-06-01T07:18:19.938Z,39.38
2019-06-01T07:19:19.937Z,39.38
2019-06-01T07:20:19.946Z,39.38
2019-06-01T07:21:19.952Z,39.38
2019-06-01T07:22:19.976Z,39.38
2019-06-01T07:23:19.970Z,39.38
2019-06-01T07:24:19.969Z,39.38
2019-06-01T07:25:20.007Z,39.38
2019-06-01T07:26:19.998Z,39.38
2019-06-01T07:27:19.995Z,39.38
2019-06-01T07:28:20.006Z,39.38
2019-06-01T07:29:20.083Z,39.38
2019-06-01T07:30:20.123Z,39.38
2019-06-01T07:31:20.171Z,39.38
2019-06-01T07:32:20.259Z,39.38
2019-06-01T07:33:20.468Z,39.38
2019-06-01T07:34:32.175Z,39.38
2019-06-01T07:35:20.531Z,39.38
2019-06-01T07:36:20.285Z,39.38
2019-06-01T07:37:20.651Z,39.38
2019-06-01T07:38:20.279Z,39.38
2019-06-01T07:39:20.540Z,39.38
2019-06-01T07:40:20.958Z,39.38
2019-06-01T07:41:20.662Z,39.38
2019-06-01T07:42:23.197Z,39.38
2019-06-01T07:43:20.527Z,39.38
2019-06-01T07:44:20.826Z,39.38
2019-06-01T07:45:20.816Z,39.38
2019-06-01T07:46:20.804Z,39.38
2019-06-01T07:47:20.792Z,39.38
2019-06-01T07:48:20.966Z,39.38
2019-06-01T07:49:21.052Z,39.38
2019-06-01T07:50:20.124Z,39.38
2019-06-01T07:51:21.104Z,39.38
2019-06-01T07:52:20.264Z,39.38
2019-06-01T07:53:20.988Z,39.38
2019-06-01T07:54:20.303Z,39.38
2019-06-01T07:55:21.482Z,39.38
2019-06-01T07:56:20.481Z,39.38
2019-06-01T07:57:21.476Z,39.38
2019-06-01T07:58:20.862Z,39.38
2019-06-01T07:59:21.483Z,33.75
2019-06-01T08:00:22.200Z,33.75
2019-06-01T08:01:21.630Z,39.38
2019-06-01T08:02:25.320Z,39.38
2019-06-01T08:03:20.201Z,39.38
2019-06-01T08:04:21.006Z,39.38
2019-06-01T08:05:20.184Z,39.38
2019-06-01T08:06:20.909Z,33.75
2019-06-01T08:07:21.170Z,33.75
2019-06-01T08:08:21.721Z,33.75
2019-06-01T08:09:22.054Z,33.75
2019-06-01T08:10:21.095Z,33.75
2019-06-01T08:11:21.278Z,33.75
2019-06-01T08:12:21.229Z,33.75
2019-06-01T08:13:21.409Z,33.75
2019-06-01T08:14:20.239Z,33.75
2019-06-01T08:15:21.513Z,33.75
2019-06-01T08:16:21.417Z,33.75
2019-06-01T08:17:21.913Z,33.75
2019-06-01T08:18:21.813Z,33.75
2019-06-01T08:19:20.292Z,33.75
2019-06-01T08:20:20.281Z,33.75
2019-06-01T08:21:20.272Z,33.75
2019-06-01T08:22:20.300Z,33.75
2019-06-01T08:23:20.286Z,33.75
2019-06-01T08:24:20.305Z,33.75
2019-06-01T08:25:20.351Z,33.75
2019-06-01T08:26:20.295Z,33.75
2019-06-01T08:27:20.359Z,33.75
2019-06-01T08:28:20.331Z,33.75
2019-06-01T08:29:20.318Z,33.75
2019-06-01T08:30:20.349Z,33.75
2019-06-01T08:31:20.344Z,33.75
2019-06-01T08:32:20.398Z,33.75
2019-06-01T08:33:20.334Z,33.75
2019-06-01T08:34:20.353Z,33.75
2019-06-01T08:35:20.371Z,33.75
2019-06-01T08:36:20.361Z,33.75
2019-06-01T08:37:20.504Z,33.75
2019-06-01T08:38:20.378Z,33.75
2019-06-01T08:39:20.472Z,33.75
2019-06-01T08:40:20.443Z,33.75
2019-06-01T08:41:20.497Z,33.75
2019-06-01T08:42:20.402Z,33.75
2019-06-01T08:43:20.423Z,33.75
2019-06-01T08:44:20.458Z,33.75
2019-06-01T08:45:20.430Z,33.75
2019-06-01T08:46:20.773Z,33.75
2019-06-01T08:47:20.478Z,33.75
2019-06-01T08:48:20.465Z,33.75
2019-06-01T08:49:20.480Z,33.75
2019-06-01T08:50:20.481Z,33.75
2019-06-01T08:51:20.507Z,33.75
2019-06-01T08:52:20.501Z,33.75
2019-06-01T08:53:20.476Z,33.75
2019-06-01T08:54:20.517Z,33.75
2019-06-01T08:55:20.539Z,33.75
2019-06-01T08:56:22.017Z,33.75
2019-06-01T08:57:20.507Z,33.75
2019-06-01T08:58:20.476Z,33.75
2019-06-01T08:59:20.645Z,33.75
2019-06-01T09:00:20.518Z,33.75
2019-06-01T09:01:20.497Z,33.75
2019-06-01T09:02:20.500Z,33.75
2019-06-01T09:03:20.550Z,33.75
2019-06-01T09:04:20.520Z,28.13
2019-06-01T09:05:24.215Z,28.13
2019-06-01T09:06:20.607Z,28.13
2019-06-01T09:07:20.528Z,28.13
2019-06-01T09:08:23.741Z,28.13
2019-06-01T09:09:29.239Z,28.13
2019-06-01T09:11:25.160Z,28.13
2019-06-01T09:12:25.128Z,28.13
2019-06-01T09:13:25.175Z,28.13
2019-06-01T09:14:25.239Z,28.13
2019-06-01T09:15:25.597Z,28.13
2019-06-01T09:16:25.516Z,28.13
2019-06-01T09:17:25.388Z,28.13
2019-06-01T09:18:25.722Z,28.13
2019-06-01T09:19:25.381Z,28.13
2019-06-01T09:20:25.482Z,28.13
2019-06-01T09:21:25.389Z,28.13
2019-06-01T09:22:25.352Z,28.13
2019-06-01T09:23:25.499Z,28.13
2019-06-01T09:24:25.775Z,28.13
2019-06-01T09:25:25.602Z,28.13
2019-06-01T09:26:26.288Z,28.13
2019-06-01T09:27:25.628Z,28.13
2019-06-01T09:28:25.762Z,28.13
2019-06-01T09:29:25.830Z,28.13
2019-06-01T09:30:25.883Z,28.13
2019-06-01T09:31:26.280Z,28.13
2019-06-01T09:32:26.063Z,28.13
2019-06-01T09:33:26.039Z,28.13
2019-06-01T09:34:26.183Z,28.13
2019-06-01T09:35:44.775Z,28.13
2019-06-01T09:36:26.129Z,28.13
2019-06-01T09:37:26.379Z,28.13
2019-06-01T09:38:25.230Z,28.13
2019-06-01T09:39:26.489Z,28.13
2019-06-01T09:40:27.309Z,28.13
2019-06-01T09:41:26.338Z,28.13
2019-06-01T09:42:26.637Z,28.13
2019-06-01T09:43:26.490Z,28.13
2019-06-01T09:44:25.230Z,28.13
2019-06-01T09:45:25.220Z,28.13
2019-06-01T09:46:25.314Z,28.13
2019-06-01T09:47:25.510Z,22.50
2019-06-01T09:48:25.233Z,22.50
2019-06-01T09:49:25.262Z,22.50
2019-06-01T09:50:25.312Z,22.50
2019-06-01T09:51:25.250Z,22.50
2019-06-01T09:52:25.263Z,22.50
2019-06-01T09:53:25.297Z,22.50
2019-06-01T09:54:25.312Z,22.50
2019-06-01T09:55:25.318Z,22.50
2019-06-01T09:56:25.294Z,22.50
2019-06-01T09:57:25.326Z,22.50
2019-06-01T09:58:25.295Z,22.50
2019-06-01T09:59:25.345Z,22.50
2019-06-01T10:00:25.316Z,22.50
2019-06-01T10:01:25.310Z,22.50
2019-06-01T10:02:25.355Z,22.50
2019-06-01T10:03:25.427Z,22.50
2019-06-01T10:04:25.343Z,22.50
2019-06-01T10:07:07.721Z,22.50
2019-06-01T10:10:13.043Z,22.50
2019-06-01T10:11:09.279Z,22.50
2019-06-01T10:12:09.313Z,22.50
2019-06-01T10:13:09.308Z,22.50
2019-06-01T10:14:09.298Z,22.50
2019-06-01T10:15:09.353Z,22.50
2019-06-01T10:16:09.290Z,22.50
2019-06-01T10:17:09.305Z,22.50
2019-06-01T10:18:09.360Z,22.50
2019-06-01T10:19:09.366Z,22.50
2019-06-01T10:20:09.308Z,22.50
2019-06-01T10:21:09.313Z,22.50
2019-06-01T10:22:09.335Z,22.50
2019-06-01T10:23:09.375Z,22.50
2019-06-01T10:24:09.333Z,22.50
2019-06-01T10:25:09.384Z,22.50
2019-06-01T10:26:09.339Z,22.50
2019-06-01T10:27:09.418Z,22.50
2019-06-01T10:28:09.408Z,22.50
2019-06-01T10:29:09.363Z,22.50
2019-06-01T10:30:09.388Z,22.50
2019-06-01T10:31:09.433Z,22.50
2019-06-01T10:32:09.471Z,22.50
2019-06-01T10:33:09.399Z,22.50
2019-06-01T10:34:09.386Z,22.50
2019-06-01T10:35:09.421Z,22.50
2019-06-01T10:36:19.730Z,22.50
2019-06-01T10:37:09.467Z,22.50
2019-06-01T10:38:09.437Z,22.50
2019-06-01T10:39:09.426Z,22.50
2019-06-01T10:40:09.465Z,22.50
2019-06-01T10:41:09.491Z,22.50
2019-06-01T10:42:09.468Z,22.50
2019-06-01T10:43:09.465Z,22.50
2019-06-01T10:44:09.485Z,22.50
2019-06-01T10:45:09.466Z,22.50
2019-06-01T10:46:10.239Z,22.50
2019-06-01T10:47:09.765Z,22.50
2019-06-01T10:48:10.004Z,22.50
2019-06-01T10:49:10.217Z,22.50
2019-06-01T10:50:10.186Z,22.50
2019-06-01T10:51:09.539Z,22.50
2019-06-01T10:52:09.558Z,16.88
2019-06-01T10:53:09.661Z,16.88
2019-06-01T10:54:09.539Z,22.50
2019-06-01T10:55:09.509Z,16.88
2019-06-01T10:56:09.574Z,16.88
2019-06-01T10:57:09.551Z,16.88
2019-06-01T10:58:09.563Z,22.50
2019-06-01T10:59:09.586Z,16.88
2019-06-01T11:00:09.540Z,16.88
2019-06-01T11:01:09.567Z,16.88
2019-06-01T11:02:09.581Z,16.88
2019-06-01T11:03:09.558Z,16.88
2019-06-01T11:04:09.613Z,16.88
2019-06-01T11:05:09.578Z,16.88
2019-06-01T11:06:09.647Z,16.88
2019-06-01T11:07:09.600Z,16.88
2019-06-01T11:08:09.627Z,16.88
2019-06-01T11:09:09.682Z,16.88
2019-06-01T11:10:09.699Z,16.88
2019-06-01T11:11:09.640Z,16.88
2019-06-01T11:12:09.626Z,16.88
2019-06-01T11:13:09.633Z,16.88
2019-06-01T11:14:09.654Z,16.88
2019-06-01T11:15:09.670Z,16.88
2019-06-01T11:16:09.696Z,16.88
2019-06-01T11:17:09.762Z,16.88
2019-06-01T11:18:09.652Z,16.88
2019-06-01T11:19:09.664Z,16.88
2019-06-01T11:20:09.685Z,16.88
2019-06-01T11:21:09.698Z,16.88
2019-06-01T11:22:09.679Z,16.88
2019-06-01T11:23:09.679Z,16.88
2019-06-01T11:24:09.704Z,16.88
2019-06-01T11:25:18.371Z,16.88
2019-06-01T11:27:14.226Z,16.88
2019-06-01T11:28:14.198Z,16.88
2019-06-01T11:29:22.840Z,16.88
2019-06-01T11:31:18.737Z,16.88
2019-06-01T11:32:18.707Z,16.88
2019-06-01T11:33:18.743Z,16.88
2019-06-01T11:34:18.722Z,16.88
2019-06-01T11:35:18.765Z,16.88
2019-06-01T11:36:18.735Z,16.88
2019-06-01T11:37:18.742Z,16.88
2019-06-01T11:38:18.820Z,16.88
2019-06-01T11:39:18.750Z,16.88
2019-06-01T11:40:18.745Z,16.88
2019-06-01T11:41:19.105Z,16.88
2019-06-01T11:42:20.023Z,16.88
2019-06-01T11:43:18.763Z,16.88
2019-06-01T11:44:18.787Z,16.88
2019-06-01T11:45:18.790Z,16.88
2019-06-01T11:46:18.844Z,16.88
2019-06-01T11:47:18.812Z,16.88
2019-06-01T11:48:18.794Z,16.88
2019-06-01T11:49:20.907Z,16.88
2019-06-01T11:50:18.863Z,16.88
2019-06-01T11:51:18.958Z,16.88
2019-06-01T11:52:18.900Z,16.88
2019-06-01T11:53:18.851Z,16.88
2019-06-01T11:54:18.927Z,16.88
2019-06-01T11:55:18.857Z,16.88
2019-06-01T11:56:18.855Z,16.88
2019-06-01T11:57:28.224Z,16.88
2019-06-01T11:59:23.491Z,16.88
2019-06-01T12:00:23.978Z,16.88
2019-06-01T12:02:14.758Z,16.88
2019-06-01T12:04:48.996Z,16.88
2019-06-01T12:07:30.434Z,16.88
2019-06-01T12:08:33.989Z,16.88
2019-06-01T12:09:30.581Z,16.88
2019-06-01T12:10:30.892Z,16.88
2019-06-01T12:11:30.817Z,16.88
2019-06-01T12:14:31.161Z,16.88
2019-06-01T12:15:26.416Z,16.88
2019-06-01T12:17:18.805Z,16.88
2019-06-01T12:18:28.711Z,16.88
2019-06-01T12:20:12.215Z,16.88
2019-06-01T12:21:12.187Z,16.88
2019-06-01T12:22:12.152Z,16.88
2019-06-01T12:23:12.164Z,16.88
2019-06-01T12:24:12.175Z,16.88
2019-06-01T12:25:12.162Z,16.88
2019-06-01T12:26:12.174Z,16.88
2019-06-01T12:27:12.198Z,16.88
2019-06-01T12:28:20.930Z,16.88
2019-06-01T12:30:16.727Z,16.88
2019-06-01T12:31:16.750Z,16.88
2019-06-01T12:32:16.705Z,16.88
2019-06-01T12:33:17.656Z,16.88
2019-06-01T12:34:16.707Z,16.88
2019-06-01T12:35:16.751Z,16.88
2019-06-01T12:36:16.747Z,16.88
2019-06-01T12:37:34.110Z,16.88
2019-06-01T12:38:16.753Z,16.88
2019-06-01T12:39:16.733Z,16.88
2019-06-01T12:40:16.775Z,16.88
2019-06-01T12:41:16.779Z,16.88
2019-06-01T12:42:17.047Z,16.88
2019-06-01T12:43:16.944Z,16.88
2019-06-01T12:44:17.073Z,16.88
2019-06-01T12:45:16.786Z,16.88
2019-06-01T12:46:17.830Z,16.88
2019-06-01T12:47:17.727Z,16.88
2019-06-01T12:48:17.162Z,16.88
2019-06-01T12:49:18.104Z,16.88
2019-06-01T12:50:16.858Z,16.88
2019-06-01T12:51:16.821Z,16.88
2019-06-01T12:52:16.850Z,16.88
2019-06-01T12:53:16.847Z,16.88
2019-06-01T12:54:16.836Z,16.88
2019-06-01T12:55:16.881Z,16.88
2019-06-01T12:56:26.106Z,16.88
2019-06-01T13:04:44.731Z,16.88
2019-06-01T13:05:52.234Z,16.88
2019-06-01T13:07:58.639Z,16.88
2019-06-01T13:08:48.931Z,16.88
2019-06-01T13:16:30.320Z,16.88
2019-06-01T13:17:30.048Z,16.88
2019-06-01T13:19:34.937Z,16.88
2019-06-01T13:20:34.374Z,16.88
2019-06-01T13:21:34.691Z,16.88
2019-06-01T13:22:34.575Z,16.88
2019-06-01T13:23:34.341Z,16.88
2019-06-01T13:24:34.346Z,16.88
2019-06-01T13:25:34.405Z,16.88
2019-06-01T13:26:43.706Z,16.88
2019-06-01T13:28:41.671Z,16.88
2019-06-01T13:29:40.129Z,16.88
2019-06-01T13:30:40.063Z,16.88
2019-06-01T15:22:14.438Z,11.25
2019-06-01T15:22:56.343Z,11.25
2019-06-01T15:23:54.348Z,11.25
2019-06-01T15:26:27.633Z,11.25
2019-06-01T15:27:17.894Z,11.25
2019-06-01T15:28:18.518Z,11.25
2019-06-01T15:29:20.400Z,11.25
2019-06-01T15:30:18.035Z,11.25
2019-06-01T15:31:17.012Z,11.25
2019-06-01T15:32:17.222Z,11.25
2019-06-01T15:33:17.087Z,11.25
2019-06-01T15:36:57.681Z,11.25
2019-06-01T15:37:51.347Z,11.25
2019-06-01T15:38:48.784Z,11.25
2019-06-01T15:42:28.323Z,11.25
2019-06-01T15:43:28.322Z,11.25
2019-06-01T15:44:34.830Z,11.25
2019-06-01T15:45:26.808Z,11.25
2019-06-01T15:49:37.383Z,11.25
2019-06-01T15:50:33.521Z,11.25
2019-06-01T15:51:34.632Z,11.25
2019-06-01T15:52:34.432Z,11.25
2019-06-01T15:55:28.412Z,11.25
2019-06-01T16:00:04.992Z,11.25
2019-06-01T16:05:40.186Z,11.25
2019-06-01T16:06:37.862Z,11.25
2019-06-01T16:10:25.561Z,11.25